sensor_id;sensor_type;location;lat;lon;timestamp;temperature;humidity
6307;DHT22;3186;54.062;9.962;2023-12-04T00:01:47;0.60;99.90
6307;DHT22;3186;54.062;9.962;2023-12-04T00:04:13;0.60;99.90
6307;DHT22;3186;54.062;9.962;2023-12-04T00:06:39;0.60;99.90
6307;DHT22;3186;54.062;9.962;2023-12-04T00:09:05;0.60;99.90
6307;DHT22;3186;54.062;9.962;2023-12-04T00:11:31;0.60;99.90
6307;DHT22;3186;54.062;9.962;2023-12-04T00:13:58;0.60;99.90
6307;DHT22;3186;54.062;9.962;2023-12-04T00:16:23;0.60;99.90
6307;DHT22;3186;54.062;9.962;2023-12-04T00:18:49;0.60;99.90
6307;DHT22;3186;54.062;9.962;2023-12-04T00:21:15;0.60;99.90
6307;DHT22;3186;54.062;9.962;2023-12-04T00:23:40;0.80;99.90
6307;DHT22;3186;54.062;9.962;2023-12-04T00:26:06;0.60;99.90
6307;DHT22;3186;54.062;9.962;2023-12-04T00:28:32;0.60;99.90
6307;DHT22;3186;54.062;9.962;2023-12-04T00:30:57;0.50;99.90
6307;DHT22;3186;54.062;9.962;2023-12-04T00:33:23;0.50;99.90
6307;DHT22;3186;54.062;9.962;2023-12-04T00:35:48;0.50;99.90
6307;DHT22;3186;54.062;9.962;2023-12-04T00:38:14;0.60;99.90
6307;DHT22;3186;54.062;9.962;2023-12-04T00:40:39;0.50;99.90
6307;DHT22;3186;54.062;9.962;2023-12-04T00:43:05;0.50;99.90
6307;DHT22;3186;54.062;9.962;2023-12-04T00:45:31;0.50;99.90
6307;DHT22;3186;54.062;9.962;2023-12-04T00:47:56;0.50;99.90
6307;DHT22;3186;54.062;9.962;2023-12-04T00:50:22;0.50;99.90
6307;DHT22;3186;54.062;9.962;2023-12-04T00:52:48;0.40;99.90
6307;DHT22;3186;54.062;9.962;2023-12-04T00:55:13;0.40;99.90
6307;DHT22;3186;54.062;9.962;2023-12-04T00:57:39;0.40;99.90
6307;DHT22;3186;54.062;9.962;2023-12-04T01:00:05;0.40;99.90
6307;DHT22;3186;54.062;9.962;2023-12-04T01:02:32;0.40;99.90
6307;DHT22;3186;54.062;9.962;2023-12-04T01:04:57;0.40;99.90
6307;DHT22;3186;54.062;9.962;2023-12-04T01:07:23;0.40;99.90
6307;DHT22;3186;54.062;9.962;2023-12-04T01:09:48;0.30;99.90
6307;DHT22;3186;54.062;9.962;2023-12-04T01:12:14;0.40;99.90
6307;DHT22;3186;54.062;9.962;2023-12-04T01:14:39;0.30;99.90
6307;DHT22;3186;54.062;9.962;2023-12-04T01:17:05;0.40;99.90
6307;DHT22;3186;54.062;9.962;2023-12-04T01:19:32;0.30;99.90
6307;DHT22;3186;54.062;9.962;2023-12-04T01:21:57;0.40;99.90
6307;DHT22;3186;54.062;9.962;2023-12-04T01:24:23;0.30;99.90
6307;DHT22;3186;54.062;9.962;2023-12-04T01:26:48;0.30;99.90
6307;DHT22;3186;54.062;9.962;2023-12-04T01:29:14;0.30;99.90
6307;DHT22;3186;54.062;9.962;2023-12-04T01:31:39;0.30;99.90
6307;DHT22;3186;54.062;9.962;2023-12-04T01:34:05;0.20;99.90
6307;DHT22;3186;54.062;9.962;2023-12-04T01:36:31;0.20;99.90
6307;DHT22;3186;54.062;9.962;2023-12-04T01:38:56;0.20;99.90
6307;DHT22;3186;54.062;9.962;2023-12-04T01:41:22;0.20;99.90
6307;DHT22;3186;54.062;9.962;2023-12-04T01:43:47;1.70;99.90
6307;DHT22;3186;54.062;9.962;2023-12-04T01:46:15;0.10;99.90
6307;DHT22;3186;54.062;9.962;2023-12-04T01:48:43;0.10;99.90
6307;DHT22;3186;54.062;9.962;2023-12-04T01:51:10;0.10;99.90
6307;DHT22;3186;54.062;9.962;2023-12-04T01:53:38;0.10;99.90
6307;DHT22;3186;54.062;9.962;2023-12-04T01:56:05;0.10;99.90
6307;DHT22;3186;54.062;9.962;2023-12-04T01:58:32;0.10;99.90
6307;DHT22;3186;54.062;9.962;2023-12-04T02:00:58;0.00;99.90
6307;DHT22;3186;54.062;9.962;2023-12-04T02:03:24;0.00;99.90
6307;DHT22;3186;54.062;9.962;2023-12-04T02:05:51;0.10;99.90
6307;DHT22;3186;54.062;9.962;2023-12-04T02:08:18;0.10;99.90
6307;DHT22;3186;54.062;9.962;2023-12-04T02:10:44;0.10;99.90
6307;DHT22;3186;54.062;9.962;2023-12-04T02:13:10;0.10;99.90
6307;DHT22;3186;54.062;9.962;2023-12-04T02:15:36;0.00;99.90
6307;DHT22;3186;54.062;9.962;2023-12-04T02:18:05;0.00;99.90
6307;DHT22;3186;54.062;9.962;2023-12-04T02:20:32;0.00;99.90
6307;DHT22;3186;54.062;9.962;2023-12-04T02:22:59;-0.10;99.90
6307;DHT22;3186;54.062;9.962;2023-12-04T02:25:24;0.00;99.90
6307;DHT22;3186;54.062;9.962;2023-12-04T02:27:52;-0.10;99.90
6307;DHT22;3186;54.062;9.962;2023-12-04T02:30:21;-0.10;99.90
6307;DHT22;3186;54.062;9.962;2023-12-04T02:32:48;-0.10;99.90
6307;DHT22;3186;54.062;9.962;2023-12-04T02:35:26;-0.10;99.90
6307;DHT22;3186;54.062;9.962;2023-12-04T02:37:53;-0.20;99.90
6307;DHT22;3186;54.062;9.962;2023-12-04T02:40:19;-0.30;99.90
6307;DHT22;3186;54.062;9.962;2023-12-04T02:42:45;-0.10;99.90
6307;DHT22;3186;54.062;9.962;2023-12-04T02:45:11;-0.10;99.90
6307;DHT22;3186;54.062;9.962;2023-12-04T02:47:36;-0.20;99.90
6307;DHT22;3186;54.062;9.962;2023-12-04T02:50:02;-0.20;99.90
6307;DHT22;3186;54.062;9.962;2023-12-04T02:52:28;-0.10;99.90
6307;DHT22;3186;54.062;9.962;2023-12-04T02:54:54;-0.10;99.90
6307;DHT22;3186;54.062;9.962;2023-12-04T02:57:19;-0.20;99.90
6307;DHT22;3186;54.062;9.962;2023-12-04T02:59:45;-0.20;99.90
6307;DHT22;3186;54.062;9.962;2023-12-04T03:02:11;-0.20;99.90
6307;DHT22;3186;54.062;9.962;2023-12-04T03:04:36;-0.20;99.90
6307;DHT22;3186;54.062;9.962;2023-12-04T03:07:02;-0.20;99.90
6307;DHT22;3186;54.062;9.962;2023-12-04T03:13:08;-0.20;99.90
6307;DHT22;3186;54.062;9.962;2023-12-04T03:15:34;-0.20;99.90
6307;DHT22;3186;54.062;9.962;2023-12-04T03:18:00;-0.20;99.90
6307;DHT22;3186;54.062;9.962;2023-12-04T03:20:26;-0.30;99.90
6307;DHT22;3186;54.062;9.962;2023-12-04T03:22:52;-0.30;99.90
6307;DHT22;3186;54.062;9.962;2023-12-04T03:25:17;-0.30;99.90
6307;DHT22;3186;54.062;9.962;2023-12-04T03:27:43;-0.30;99.90
6307;DHT22;3186;54.062;9.962;2023-12-04T03:30:09;-0.30;99.90
6307;DHT22;3186;54.062;9.962;2023-12-04T03:32:35;-0.40;99.90
6307;DHT22;3186;54.062;9.962;2023-12-04T03:35:00;-0.40;99.90
6307;DHT22;3186;54.062;9.962;2023-12-04T03:37:26;-0.40;99.90
6307;DHT22;3186;54.062;9.962;2023-12-04T03:39:52;-0.40;99.90
6307;DHT22;3186;54.062;9.962;2023-12-04T03:42:18;-0.40;99.90
6307;DHT22;3186;54.062;9.962;2023-12-04T03:44:44;-0.40;99.90
6307;DHT22;3186;54.062;9.962;2023-12-04T03:47:09;-0.40;99.90
6307;DHT22;3186;54.062;9.962;2023-12-04T03:49:35;-0.40;99.90
6307;DHT22;3186;54.062;9.962;2023-12-04T03:52:00;-0.40;99.90
6307;DHT22;3186;54.062;9.962;2023-12-04T03:54:26;-0.40;99.90
6307;DHT22;3186;54.062;9.962;2023-12-04T03:56:52;-0.40;99.90
6307;DHT22;3186;54.062;9.962;2023-12-04T03:59:17;-0.40;99.90
6307;DHT22;3186;54.062;9.962;2023-12-04T04:01:43;-0.50;99.90
6307;DHT22;3186;54.062;9.962;2023-12-04T04:04:08;-0.50;99.90
6307;DHT22;3186;54.062;9.962;2023-12-04T04:06:34;-0.50;99.90
6307;DHT22;3186;54.062;9.962;2023-12-04T04:09:00;-0.50;99.90
6307;DHT22;3186;54.062;9.962;2023-12-04T04:11:25;-0.50;99.90
6307;DHT22;3186;54.062;9.962;2023-12-04T04:13:51;-0.50;99.90
6307;DHT22;3186;54.062;9.962;2023-12-04T04:16:17;-0.50;99.90
6307;DHT22;3186;54.062;9.962;2023-12-04T04:18:42;-0.50;99.90
6307;DHT22;3186;54.062;9.962;2023-12-04T04:21:09;-0.50;99.90
6307;DHT22;3186;54.062;9.962;2023-12-04T04:23:34;-0.50;99.90
6307;DHT22;3186;54.062;9.962;2023-12-04T04:26:00;1.70;99.90
6307;DHT22;3186;54.062;9.962;2023-12-04T04:28:26;-0.50;99.90
6307;DHT22;3186;54.062;9.962;2023-12-04T04:30:51;-0.60;99.90
6307;DHT22;3186;54.062;9.962;2023-12-04T04:33:17;-0.60;99.90
6307;DHT22;3186;54.062;9.962;2023-12-04T04:35:43;-0.60;99.90
6307;DHT22;3186;54.062;9.962;2023-12-04T04:38:09;-0.60;99.90
6307;DHT22;3186;54.062;9.962;2023-12-04T04:40:34;-0.50;99.90
6307;DHT22;3186;54.062;9.962;2023-12-04T04:43:00;0.20;99.90
6307;DHT22;3186;54.062;9.962;2023-12-04T04:45:26;-0.60;99.90
6307;DHT22;3186;54.062;9.962;2023-12-04T04:47:51;-0.60;99.90
6307;DHT22;3186;54.062;9.962;2023-12-04T04:50:17;-0.60;99.90
6307;DHT22;3186;54.062;9.962;2023-12-04T04:52:43;-0.60;99.90
6307;DHT22;3186;54.062;9.962;2023-12-04T04:55:08;-0.60;99.90
6307;DHT22;3186;54.062;9.962;2023-12-04T04:57:34;-0.60;99.90
6307;DHT22;3186;54.062;9.962;2023-12-04T04:59:59;-0.60;99.90
6307;DHT22;3186;54.062;9.962;2023-12-04T05:02:25;-0.60;99.90
6307;DHT22;3186;54.062;9.962;2023-12-04T05:04:51;-0.60;99.90
6307;DHT22;3186;54.062;9.962;2023-12-04T05:07:16;-0.60;99.90
6307;DHT22;3186;54.062;9.962;2023-12-04T05:09:42;-0.60;99.90
6307;DHT22;3186;54.062;9.962;2023-12-04T05:12:07;-0.60;99.90
6307;DHT22;3186;54.062;9.962;2023-12-04T05:14:33;-0.60;99.90
6307;DHT22;3186;54.062;9.962;2023-12-04T05:16:59;-0.70;99.90
6307;DHT22;3186;54.062;9.962;2023-12-04T05:19:24;-0.70;99.90
6307;DHT22;3186;54.062;9.962;2023-12-04T05:21:50;-0.60;99.90
6307;DHT22;3186;54.062;9.962;2023-12-04T05:24:16;-0.60;99.90
6307;DHT22;3186;54.062;9.962;2023-12-04T05:26:41;-0.70;99.90
6307;DHT22;3186;54.062;9.962;2023-12-04T05:29:07;-0.70;99.90
6307;DHT22;3186;54.062;9.962;2023-12-04T05:31:32;-0.70;99.90
6307;DHT22;3186;54.062;9.962;2023-12-04T05:33:58;-0.70;99.90
6307;DHT22;3186;54.062;9.962;2023-12-04T05:36:24;-0.70;99.90
6307;DHT22;3186;54.062;9.962;2023-12-04T05:38:49;-0.70;99.90
6307;DHT22;3186;54.062;9.962;2023-12-04T05:41:15;-0.70;99.90
6307;DHT22;3186;54.062;9.962;2023-12-04T05:43:40;-0.70;99.90
6307;DHT22;3186;54.062;9.962;2023-12-04T05:46:06;-0.70;99.90
6307;DHT22;3186;54.062;9.962;2023-12-04T05:48:32;-0.70;99.90
6307;DHT22;3186;54.062;9.962;2023-12-04T05:50:57;-0.70;99.90
6307;DHT22;3186;54.062;9.962;2023-12-04T05:53:23;-0.70;99.90
6307;DHT22;3186;54.062;9.962;2023-12-04T05:55:49;-0.70;99.90
6307;DHT22;3186;54.062;9.962;2023-12-04T05:58:14;-0.80;99.90
6307;DHT22;3186;54.062;9.962;2023-12-04T06:00:40;-0.80;99.90
6307;DHT22;3186;54.062;9.962;2023-12-04T06:03:06;-0.80;99.90
6307;DHT22;3186;54.062;9.962;2023-12-04T06:05:31;-0.80;99.90
6307;DHT22;3186;54.062;9.962;2023-12-04T06:07:57;-0.80;99.90
6307;DHT22;3186;54.062;9.962;2023-12-04T06:10:23;-0.80;99.90
6307;DHT22;3186;54.062;9.962;2023-12-04T06:12:49;-0.80;99.90
6307;DHT22;3186;54.062;9.962;2023-12-04T06:15:14;-0.90;99.90
6307;DHT22;3186;54.062;9.962;2023-12-04T06:17:40;-0.90;99.90
6307;DHT22;3186;54.062;9.962;2023-12-04T06:20:07;-0.90;99.90
6307;DHT22;3186;54.062;9.962;2023-12-04T06:22:33;-0.80;99.90
6307;DHT22;3186;54.062;9.962;2023-12-04T06:24:59;-0.80;99.90
6307;DHT22;3186;54.062;9.962;2023-12-04T06:27:25;-0.80;99.90
6307;DHT22;3186;54.062;9.962;2023-12-04T06:29:51;-0.80;99.90
6307;DHT22;3186;54.062;9.962;2023-12-04T06:32:17;-0.80;99.90
6307;DHT22;3186;54.062;9.962;2023-12-04T06:34:43;-0.80;99.90
6307;DHT22;3186;54.062;9.962;2023-12-04T06:37:13;-0.80;99.90
6307;DHT22;3186;54.062;9.962;2023-12-04T06:39:39;-0.80;99.90
6307;DHT22;3186;54.062;9.962;2023-12-04T06:42:06;-0.80;99.90
6307;DHT22;3186;54.062;9.962;2023-12-04T06:44:32;-0.80;99.90
6307;DHT22;3186;54.062;9.962;2023-12-04T06:47:00;-0.80;99.90
6307;DHT22;3186;54.062;9.962;2023-12-04T06:49:29;-0.90;99.90
6307;DHT22;3186;54.062;9.962;2023-12-04T06:51:55;-0.90;99.90
6307;DHT22;3186;54.062;9.962;2023-12-04T06:54:20;-0.90;99.90
6307;DHT22;3186;54.062;9.962;2023-12-04T06:56:46;-3.10;99.90
6307;DHT22;3186;54.062;9.962;2023-12-04T06:59:11;-0.80;99.90
6307;DHT22;3186;54.062;9.962;2023-12-04T07:01:37;-0.80;99.90
6307;DHT22;3186;54.062;9.962;2023-12-04T07:04:03;-0.80;99.90
6307;DHT22;3186;54.062;9.962;2023-12-04T07:06:38;-0.80;99.90
6307;DHT22;3186;54.062;9.962;2023-12-04T07:09:04;-0.80;99.90
6307;DHT22;3186;54.062;9.962;2023-12-04T07:11:30;-0.90;99.90
6307;DHT22;3186;54.062;9.962;2023-12-04T07:13:56;-0.80;99.90
6307;DHT22;3186;54.062;9.962;2023-12-04T07:16:21;-0.80;99.90
6307;DHT22;3186;54.062;9.962;2023-12-04T07:18:47;-0.80;99.90
6307;DHT22;3186;54.062;9.962;2023-12-04T07:21:13;-0.80;99.90
6307;DHT22;3186;54.062;9.962;2023-12-04T07:23:38;-0.70;99.90
6307;DHT22;3186;54.062;9.962;2023-12-04T07:26:04;-0.70;99.90
6307;DHT22;3186;54.062;9.962;2023-12-04T07:28:32;-0.80;99.90
6307;DHT22;3186;54.062;9.962;2023-12-04T07:30:58;-0.80;99.90
6307;DHT22;3186;54.062;9.962;2023-12-04T07:33:24;-0.80;99.90
6307;DHT22;3186;54.062;9.962;2023-12-04T07:35:50;-0.80;99.90
6307;DHT22;3186;54.062;9.962;2023-12-04T07:38:17;-0.80;99.90
6307;DHT22;3186;54.062;9.962;2023-12-04T07:40:43;-0.80;99.90
6307;DHT22;3186;54.062;9.962;2023-12-04T07:43:09;-0.80;99.90
6307;DHT22;3186;54.062;9.962;2023-12-04T07:45:34;-0.80;99.90
6307;DHT22;3186;54.062;9.962;2023-12-04T07:48:05;-0.80;99.90
6307;DHT22;3186;54.062;9.962;2023-12-04T07:50:30;-0.80;99.90
6307;DHT22;3186;54.062;9.962;2023-12-04T07:52:56;-0.70;99.90
6307;DHT22;3186;54.062;9.962;2023-12-04T07:55:22;-0.80;99.90
6307;DHT22;3186;54.062;9.962;2023-12-04T07:57:47;-0.70;99.90
6307;DHT22;3186;54.062;9.962;2023-12-04T08:00:14;-0.70;99.90
6307;DHT22;3186;54.062;9.962;2023-12-04T08:02:40;-0.80;99.90
6307;DHT22;3186;54.062;9.962;2023-12-04T08:05:06;-0.70;99.90
6307;DHT22;3186;54.062;9.962;2023-12-04T08:07:32;-0.70;99.90
6307;DHT22;3186;54.062;9.962;2023-12-04T08:09:57;-0.80;99.90
6307;DHT22;3186;54.062;9.962;2023-12-04T08:12:23;-0.80;99.90
6307;DHT22;3186;54.062;9.962;2023-12-04T08:14:49;-0.70;99.90
6307;DHT22;3186;54.062;9.962;2023-12-04T08:17:14;-0.70;99.90
6307;DHT22;3186;54.062;9.962;2023-12-04T08:19:40;-0.70;99.90
6307;DHT22;3186;54.062;9.962;2023-12-04T08:22:07;-0.70;99.90
6307;DHT22;3186;54.062;9.962;2023-12-04T08:24:32;-0.80;99.90
6307;DHT22;3186;54.062;9.962;2023-12-04T08:26:58;-0.70;99.90
6307;DHT22;3186;54.062;9.962;2023-12-04T08:29:24;-0.70;99.90
6307;DHT22;3186;54.062;9.962;2023-12-04T08:31:49;-0.60;99.90
6307;DHT22;3186;54.062;9.962;2023-12-04T08:34:15;-0.60;99.90
6307;DHT22;3186;54.062;9.962;2023-12-04T08:36:41;-0.60;99.90
6307;DHT22;3186;54.062;9.962;2023-12-04T08:39:07;-0.60;99.90
6307;DHT22;3186;54.062;9.962;2023-12-04T08:41:32;-0.60;99.90
6307;DHT22;3186;54.062;9.962;2023-12-04T08:43:58;-0.60;99.90
6307;DHT22;3186;54.062;9.962;2023-12-04T08:46:23;-0.60;99.90
6307;DHT22;3186;54.062;9.962;2023-12-04T08:48:49;-0.60;99.90
6307;DHT22;3186;54.062;9.962;2023-12-04T08:51:16;-0.60;99.90
6307;DHT22;3186;54.062;9.962;2023-12-04T08:53:42;-0.60;99.90
6307;DHT22;3186;54.062;9.962;2023-12-04T08:56:08;-0.60;99.90
6307;DHT22;3186;54.062;9.962;2023-12-04T08:58:34;-0.60;99.90
6307;DHT22;3186;54.062;9.962;2023-12-04T09:00:59;-0.50;99.90
6307;DHT22;3186;54.062;9.962;2023-12-04T09:03:25;-0.50;99.90
6307;DHT22;3186;54.062;9.962;2023-12-04T09:05:50;-0.60;99.90
6307;DHT22;3186;54.062;9.962;2023-12-04T09:08:17;-0.60;99.90
6307;DHT22;3186;54.062;9.962;2023-12-04T09:10:44;-0.50;99.90
6307;DHT22;3186;54.062;9.962;2023-12-04T09:13:11;-0.50;99.90
6307;DHT22;3186;54.062;9.962;2023-12-04T09:15:37;-0.50;99.90
6307;DHT22;3186;54.062;9.962;2023-12-04T09:18:02;-0.50;99.90
6307;DHT22;3186;54.062;9.962;2023-12-04T09:20:29;-0.40;99.90
6307;DHT22;3186;54.062;9.962;2023-12-04T09:22:55;-0.40;99.90
6307;DHT22;3186;54.062;9.962;2023-12-04T09:25:20;-0.40;99.90
6307;DHT22;3186;54.062;9.962;2023-12-04T09:27:46;-0.50;99.90
6307;DHT22;3186;54.062;9.962;2023-12-04T09:30:12;-0.50;99.90
6307;DHT22;3186;54.062;9.962;2023-12-04T09:32:39;-0.50;99.90
6307;DHT22;3186;54.062;9.962;2023-12-04T09:35:06;-0.50;99.90
6307;DHT22;3186;54.062;9.962;2023-12-04T09:37:31;-0.50;99.90
6307;DHT22;3186;54.062;9.962;2023-12-04T09:39:57;-0.50;99.90
6307;DHT22;3186;54.062;9.962;2023-12-04T09:42:23;-0.50;99.90
6307;DHT22;3186;54.062;9.962;2023-12-04T09:44:48;-0.50;99.90
6307;DHT22;3186;54.062;9.962;2023-12-04T09:47:18;-0.40;99.90
6307;DHT22;3186;54.062;9.962;2023-12-04T09:49:44;-0.30;99.90
6307;DHT22;3186;54.062;9.962;2023-12-04T09:52:11;-0.50;99.90
6307;DHT22;3186;54.062;9.962;2023-12-04T09:54:37;-0.40;99.90
6307;DHT22;3186;54.062;9.962;2023-12-04T09:57:05;-0.40;99.90
6307;DHT22;3186;54.062;9.962;2023-12-04T09:59:30;-0.40;99.90
6307;DHT22;3186;54.062;9.962;2023-12-04T10:01:57;-0.30;99.90
6307;DHT22;3186;54.062;9.962;2023-12-04T10:04:23;-0.30;99.90
6307;DHT22;3186;54.062;9.962;2023-12-04T10:06:52;-0.30;99.90
6307;DHT22;3186;54.062;9.962;2023-12-04T10:09:19;-0.20;99.90
6307;DHT22;3186;54.062;9.962;2023-12-04T10:11:45;-0.30;99.90
6307;DHT22;3186;54.062;9.962;2023-12-04T10:14:20;-0.30;99.90
6307;DHT22;3186;54.062;9.962;2023-12-04T10:16:47;-0.30;99.90
6307;DHT22;3186;54.062;9.962;2023-12-04T10:19:23;-0.20;99.90
6307;DHT22;3186;54.062;9.962;2023-12-04T10:21:52;-0.20;99.90
6307;DHT22;3186;54.062;9.962;2023-12-04T10:24:31;-0.20;99.90
6307;DHT22;3186;54.062;9.962;2023-12-04T10:26:57;-0.20;99.90
6307;DHT22;3186;54.062;9.962;2023-12-04T10:29:23;-0.20;99.90
6307;DHT22;3186;54.062;9.962;2023-12-04T10:31:50;-0.20;99.90
6307;DHT22;3186;54.062;9.962;2023-12-04T10:34:18;-0.10;99.90
6307;DHT22;3186;54.062;9.962;2023-12-04T10:36:45;-0.10;99.90
6307;DHT22;3186;54.062;9.962;2023-12-04T10:39:11;-0.10;99.90
6307;DHT22;3186;54.062;9.962;2023-12-04T10:41:38;-0.10;99.90
6307;DHT22;3186;54.062;9.962;2023-12-04T10:44:04;-0.10;99.90
6307;DHT22;3186;54.062;9.962;2023-12-04T10:46:31;-0.10;99.90
6307;DHT22;3186;54.062;9.962;2023-12-04T10:48:57;-0.10;99.90
6307;DHT22;3186;54.062;9.962;2023-12-04T10:51:24;-0.10;99.90
6307;DHT22;3186;54.062;9.962;2023-12-04T10:53:51;-0.10;99.90
6307;DHT22;3186;54.062;9.962;2023-12-04T10:56:26;-0.10;99.90
6307;DHT22;3186;54.062;9.962;2023-12-04T10:58:54;0.00;99.90
6307;DHT22;3186;54.062;9.962;2023-12-04T11:01:23;-0.10;99.90
6307;DHT22;3186;54.062;9.962;2023-12-04T11:03:52;0.00;99.90
6307;DHT22;3186;54.062;9.962;2023-12-04T11:06:20;0.00;99.90
6307;DHT22;3186;54.062;9.962;2023-12-04T11:08:48;0.00;99.90
6307;DHT22;3186;54.062;9.962;2023-12-04T11:11:24;0.00;99.90
6307;DHT22;3186;54.062;9.962;2023-12-04T11:13:54;0.10;99.90
6307;DHT22;3186;54.062;9.962;2023-12-04T11:19:20;0.10;99.90
6307;DHT22;3186;54.062;9.962;2023-12-04T11:21:50;0.10;99.90
6307;DHT22;3186;54.062;9.962;2023-12-04T11:24:18;0.10;99.90
6307;DHT22;3186;54.062;9.962;2023-12-04T11:26:44;0.10;99.90
6307;DHT22;3186;54.062;9.962;2023-12-04T11:29:12;0.10;99.90
6307;DHT22;3186;54.062;9.962;2023-12-04T11:31:38;0.10;99.90
6307;DHT22;3186;54.062;9.962;2023-12-04T11:34:04;0.10;99.90
6307;DHT22;3186;54.062;9.962;2023-12-04T11:36:30;0.20;99.90
6307;DHT22;3186;54.062;9.962;2023-12-04T11:38:56;0.20;99.90
6307;DHT22;3186;54.062;9.962;2023-12-04T11:41:25;0.20;99.90
6307;DHT22;3186;54.062;9.962;2023-12-04T11:43:52;0.20;99.90
6307;DHT22;3186;54.062;9.962;2023-12-04T11:46:25;0.30;99.90
6307;DHT22;3186;54.062;9.962;2023-12-04T11:48:55;0.30;99.90
6307;DHT22;3186;54.062;9.962;2023-12-04T11:51:55;0.30;99.90
6307;DHT22;3186;54.062;9.962;2023-12-04T11:54:22;0.30;99.90
6307;DHT22;3186;54.062;9.962;2023-12-04T11:59:40;0.30;99.90
6307;DHT22;3186;54.062;9.962;2023-12-04T12:02:08;0.30;99.90
6307;DHT22;3186;54.062;9.962;2023-12-04T12:04:34;0.30;99.90
6307;DHT22;3186;54.062;9.962;2023-12-04T12:06:59;0.30;99.90
6307;DHT22;3186;54.062;9.962;2023-12-04T12:09:28;0.30;99.90
6307;DHT22;3186;54.062;9.962;2023-12-04T12:11:54;0.40;99.90
6307;DHT22;3186;54.062;9.962;2023-12-04T12:14:23;0.40;99.90
6307;DHT22;3186;54.062;9.962;2023-12-04T12:16:48;0.40;99.90
6307;DHT22;3186;54.062;9.962;2023-12-04T12:19:14;0.40;99.90
6307;DHT22;3186;54.062;9.962;2023-12-04T12:21:40;0.30;99.90
6307;DHT22;3186;54.062;9.962;2023-12-04T12:24:06;0.20;99.90
6307;DHT22;3186;54.062;9.962;2023-12-04T12:26:33;0.40;99.90
6307;DHT22;3186;54.062;9.962;2023-12-04T12:28:58;0.40;99.90
6307;DHT22;3186;54.062;9.962;2023-12-04T12:31:24;0.50;99.90
6307;DHT22;3186;54.062;9.962;2023-12-04T12:33:50;0.40;99.90
6307;DHT22;3186;54.062;9.962;2023-12-04T12:36:16;0.50;99.90
6307;DHT22;3186;54.062;9.962;2023-12-04T12:38:44;0.50;99.90
6307;DHT22;3186;54.062;9.962;2023-12-04T12:41:18;0.50;99.90
6307;DHT22;3186;54.062;9.962;2023-12-04T12:43:44;0.50;99.90
6307;DHT22;3186;54.062;9.962;2023-12-04T12:46:10;0.50;99.90
6307;DHT22;3186;54.062;9.962;2023-12-04T12:48:36;0.60;99.90
6307;DHT22;3186;54.062;9.962;2023-12-04T12:51:05;0.60;99.90
6307;DHT22;3186;54.062;9.962;2023-12-04T12:53:34;0.50;99.90
6307;DHT22;3186;54.062;9.962;2023-12-04T12:56:00;0.60;99.90
6307;DHT22;3186;54.062;9.962;2023-12-04T12:58:27;0.60;99.90
6307;DHT22;3186;54.062;9.962;2023-12-04T13:00:53;0.60;99.90
6307;DHT22;3186;54.062;9.962;2023-12-04T13:03:19;0.60;99.90
6307;DHT22;3186;54.062;9.962;2023-12-04T13:05:45;0.60;99.90
6307;DHT22;3186;54.062;9.962;2023-12-04T13:08:11;0.60;99.90
6307;DHT22;3186;54.062;9.962;2023-12-04T13:10:41;0.70;99.90
6307;DHT22;3186;54.062;9.962;2023-12-04T13:13:16;0.60;99.90
6307;DHT22;3186;54.062;9.962;2023-12-04T13:15:42;0.60;99.90
6307;DHT22;3186;54.062;9.962;2023-12-04T13:18:08;0.70;99.90
6307;DHT22;3186;54.062;9.962;2023-12-04T13:20:34;0.70;99.90
6307;DHT22;3186;54.062;9.962;2023-12-04T13:23:00;0.70;99.90
6307;DHT22;3186;54.062;9.962;2023-12-04T13:25:26;0.70;99.90
6307;DHT22;3186;54.062;9.962;2023-12-04T13:27:51;0.70;99.90
6307;DHT22;3186;54.062;9.962;2023-12-04T13:30:17;0.70;99.90
6307;DHT22;3186;54.062;9.962;2023-12-04T13:32:43;0.70;99.90
6307;DHT22;3186;54.062;9.962;2023-12-04T13:35:08;0.70;99.90
6307;DHT22;3186;54.062;9.962;2023-12-04T13:37:34;0.70;99.90
6307;DHT22;3186;54.062;9.962;2023-12-04T13:40:05;0.70;99.90
6307;DHT22;3186;54.062;9.962;2023-12-04T13:42:38;0.70;99.90
6307;DHT22;3186;54.062;9.962;2023-12-04T13:45:22;0.70;99.90
6307;DHT22;3186;54.062;9.962;2023-12-04T13:47:49;0.70;99.90
6307;DHT22;3186;54.062;9.962;2023-12-04T13:50:16;0.80;99.90
6307;DHT22;3186;54.062;9.962;2023-12-04T13:52:42;0.70;99.90
6307;DHT22;3186;54.062;9.962;2023-12-04T13:55:09;0.80;99.90
6307;DHT22;3186;54.062;9.962;2023-12-04T13:57:59;0.80;99.90
6307;DHT22;3186;54.062;9.962;2023-12-04T14:00:25;0.80;99.90
6307;DHT22;3186;54.062;9.962;2023-12-04T14:02:50;0.70;99.90
6307;DHT22;3186;54.062;9.962;2023-12-04T14:05:25;0.80;99.90
6307;DHT22;3186;54.062;9.962;2023-12-04T14:07:51;0.80;99.90
6307;DHT22;3186;54.062;9.962;2023-12-04T14:10:19;0.80;99.90
6307;DHT22;3186;54.062;9.962;2023-12-04T14:12:45;0.80;99.90
6307;DHT22;3186;54.062;9.962;2023-12-04T14:15:10;0.80;99.90
6307;DHT22;3186;54.062;9.962;2023-12-04T14:17:36;0.80;99.90
6307;DHT22;3186;54.062;9.962;2023-12-04T14:20:05;0.80;99.90
6307;DHT22;3186;54.062;9.962;2023-12-04T14:22:40;0.80;99.90
6307;DHT22;3186;54.062;9.962;2023-12-04T14:25:06;0.80;99.90
6307;DHT22;3186;54.062;9.962;2023-12-04T14:27:32;0.80;99.90
6307;DHT22;3186;54.062;9.962;2023-12-04T14:29:58;0.80;99.90
6307;DHT22;3186;54.062;9.962;2023-12-04T14:32:23;0.80;99.90
6307;DHT22;3186;54.062;9.962;2023-12-04T14:34:49;0.90;99.90
6307;DHT22;3186;54.062;9.962;2023-12-04T14:37:15;0.80;99.90
6307;DHT22;3186;54.062;9.962;2023-12-04T14:39:41;0.80;99.90
6307;DHT22;3186;54.062;9.962;2023-12-04T14:42:06;0.80;99.90
6307;DHT22;3186;54.062;9.962;2023-12-04T14:44:32;0.80;99.90
6307;DHT22;3186;54.062;9.962;2023-12-04T14:46:58;0.90;99.90
6307;DHT22;3186;54.062;9.962;2023-12-04T14:49:24;0.80;99.90
6307;DHT22;3186;54.062;9.962;2023-12-04T14:51:50;0.90;99.90
6307;DHT22;3186;54.062;9.962;2023-12-04T14:54:15;0.80;99.90
6307;DHT22;3186;54.062;9.962;2023-12-04T14:56:48;0.70;99.90
6307;DHT22;3186;54.062;9.962;2023-12-04T14:59:32;0.70;99.90
6307;DHT22;3186;54.062;9.962;2023-12-04T15:02:24;0.80;99.90
6307;DHT22;3186;54.062;9.962;2023-12-04T15:05:08;0.70;99.90
6307;DHT22;3186;54.062;9.962;2023-12-04T15:07:34;0.70;99.90
6307;DHT22;3186;54.062;9.962;2023-12-04T15:10:14;0.70;99.90
6307;DHT22;3186;54.062;9.962;2023-12-04T15:12:59;0.60;99.90
6307;DHT22;3186;54.062;9.962;2023-12-04T15:15:58;0.70;99.90
6307;DHT22;3186;54.062;9.962;2023-12-04T15:18:40;0.70;99.90
6307;DHT22;3186;54.062;9.962;2023-12-04T15:21:06;0.70;99.90
6307;DHT22;3186;54.062;9.962;2023-12-04T15:23:32;0.80;99.90
6307;DHT22;3186;54.062;9.962;2023-12-04T15:25:57;0.80;99.90
6307;DHT22;3186;54.062;9.962;2023-12-04T15:28:24;0.80;99.90
6307;DHT22;3186;54.062;9.962;2023-12-04T15:30:50;0.70;99.90
6307;DHT22;3186;54.062;9.962;2023-12-04T15:33:15;0.80;99.90
6307;DHT22;3186;54.062;9.962;2023-12-04T15:35:41;0.80;99.90
6307;DHT22;3186;54.062;9.962;2023-12-04T15:38:08;0.70;99.90
6307;DHT22;3186;54.062;9.962;2023-12-04T15:40:34;1.00;99.90
6307;DHT22;3186;54.062;9.962;2023-12-04T15:43:00;0.80;99.90
6307;DHT22;3186;54.062;9.962;2023-12-04T15:45:27;0.70;99.90
6307;DHT22;3186;54.062;9.962;2023-12-04T15:47:52;0.70;99.90
6307;DHT22;3186;54.062;9.962;2023-12-04T15:50:18;0.60;99.90
6307;DHT22;3186;54.062;9.962;2023-12-04T15:52:44;0.60;99.90
6307;DHT22;3186;54.062;9.962;2023-12-04T15:55:10;0.60;99.90
6307;DHT22;3186;54.062;9.962;2023-12-04T15:57:38;0.60;99.90
6307;DHT22;3186;54.062;9.962;2023-12-04T16:00:05;0.60;99.90
6307;DHT22;3186;54.062;9.962;2023-12-04T16:02:41;0.70;99.90
6307;DHT22;3186;54.062;9.962;2023-12-04T16:05:07;0.70;99.90
6307;DHT22;3186;54.062;9.962;2023-12-04T16:07:37;0.60;99.90
6307;DHT22;3186;54.062;9.962;2023-12-04T16:10:03;0.60;99.90
6307;DHT22;3186;54.062;9.962;2023-12-04T16:12:29;0.60;99.90
6307;DHT22;3186;54.062;9.962;2023-12-04T16:14:54;0.60;99.90
6307;DHT22;3186;54.062;9.962;2023-12-04T16:17:20;0.60;99.90